sensor_id;sensor_type;location;lat;lon;timestamp;P1;durP1;ratioP1;P2;durP2;ratioP2
23179;SDS011;11758;45.756;11.432;2022-12-10T00:01:35;24.88;;;15.82;;
23179;SDS011;11758;45.756;11.432;2022-12-10T00:04:02;30.38;;;17.42;;
23179;SDS011;11758;45.756;11.432;2022-12-10T00:06:29;27.92;;;16.70;;
23179;SDS011;11758;45.756;11.432;2022-12-10T00:08:56;41.45;;;23.58;;
23179;SDS011;11758;45.756;11.432;2022-12-10T00:11:24;54.95;;;27.60;;
23179;SDS011;11758;45.756;11.432;2022-12-10T00:13:58;45.95;;;26.52;;
23179;SDS011;11758;45.756;11.432;2022-12-10T00:16:25;50.95;;;26.77;;
23179;SDS011;11758;45.756;11.432;2022-12-10T00:18:52;51.22;;;26.13;;
23179;SDS011;11758;45.756;11.432;2022-12-10T00:21:23;59.20;;;27.95;;
23179;SDS011;11758;45.756;11.432;2022-12-10T00:23:56;63.80;;;29.08;;
23179;SDS011;11758;45.756;11.432;2022-12-10T00:26:27;111.03;;;31.30;;
23179;SDS011;11758;45.756;11.432;2022-12-10T00:28:59;87.32;;;30.33;;
23179;SDS011;11758;45.756;11.432;2022-12-10T00:31:34;273.00;;;36.88;;
23179;SDS011;11758;45.756;11.432;2022-12-10T00:34:02;218.95;;;38.67;;
23179;SDS011;11758;45.756;11.432;2022-12-10T00:36:30;114.47;;;35.85;;
23179;SDS011;11758;45.756;11.432;2022-12-10T00:38:57;176.80;;;38.97;;
23179;SDS011;11758;45.756;11.432;2022-12-10T00:41:24;140.93;;;35.97;;
23179;SDS011;11758;45.756;11.432;2022-12-10T00:43:50;175.48;;;35.40;;
23179;SDS011;11758;45.756;11.432;2022-12-10T00:46:21;124.22;;;35.17;;
23179;SDS011;11758;45.756;11.432;2022-12-10T00:48:51;116.90;;;35.47;;
23179;SDS011;11758;45.756;11.432;2022-12-10T00:51:24;106.95;;;30.20;;
23179;SDS011;11758;45.756;11.432;2022-12-10T00:53:54;85.55;;;31.55;;
23179;SDS011;11758;45.756;11.432;2022-12-10T00:56:25;63.05;;;29.45;;
23179;SDS011;11758;45.756;11.432;2022-12-10T00:58:53;76.63;;;32.38;;
23179;SDS011;11758;45.756;11.432;2022-12-10T01:03:54;64.30;;;30.17;;
23179;SDS011;11758;45.756;11.432;2022-12-10T01:06:23;68.93;;;32.47;;
23179;SDS011;11758;45.756;11.432;2022-12-10T01:08:51;54.25;;;28.10;;
23179;SDS011;11758;45.756;11.432;2022-12-10T01:11:18;56.42;;;27.88;;
23179;SDS011;11758;45.756;11.432;2022-12-10T01:13:47;50.38;;;26.95;;
23179;SDS011;11758;45.756;11.432;2022-12-10T01:16:19;60.25;;;29.10;;
23179;SDS011;11758;45.756;11.432;2022-12-10T01:18:55;58.95;;;28.95;;
23179;SDS011;11758;45.756;11.432;2022-12-10T01:21:22;64.75;;;30.58;;
23179;SDS011;11758;45.756;11.432;2022-12-10T01:23:49;59.50;;;29.80;;
23179;SDS011;11758;45.756;11.432;2022-12-10T01:26:17;59.90;;;30.88;;
23179;SDS011;11758;45.756;11.432;2022-12-10T01:28:44;68.90;;;32.50;;
23179;SDS011;11758;45.756;11.432;2022-12-10T01:31:12;77.80;;;31.33;;
23179;SDS011;11758;45.756;11.432;2022-12-10T01:33:38;67.05;;;31.73;;
23179;SDS011;11758;45.756;11.432;2022-12-10T01:36:16;64.93;;;30.75;;
23179;SDS011;11758;45.756;11.432;2022-12-10T01:38:42;72.00;;;31.35;;
23179;SDS011;11758;45.756;11.432;2022-12-10T01:41:13;144.68;;;33.60;;
23179;SDS011;11758;45.756;11.432;2022-12-10T01:46:18;296.40;;;36.17;;
23179;SDS011;11758;45.756;11.432;2022-12-10T01:48:44;293.52;;;38.47;;
23179;SDS011;11758;45.756;11.432;2022-12-10T01:51:10;181.93;;;33.95;;
23179;SDS011;11758;45.756;11.432;2022-12-10T01:53:37;344.02;;;36.15;;
23179;SDS011;11758;45.756;11.432;2022-12-10T01:56:03;359.83;;;34.33;;
23179;SDS011;11758;45.756;11.432;2022-12-10T01:58:30;204.50;;;29.73;;
23179;SDS011;11758;45.756;11.432;2022-12-10T02:00:59;277.92;;;30.98;;
23179;SDS011;11758;45.756;11.432;2022-12-10T02:03:35;201.23;;;31.20;;
23179;SDS011;11758;45.756;11.432;2022-12-10T02:08:57;131.50;;;32.28;;
23179;SDS011;11758;45.756;11.432;2022-12-10T02:11:31;174.10;;;29.85;;
23179;SDS011;11758;45.756;11.432;2022-12-10T02:14:00;195.27;;;36.60;;
23179;SDS011;11758;45.756;11.432;2022-12-10T02:16:35;77.88;;;27.85;;
23179;SDS011;11758;45.756;11.432;2022-12-10T02:21:54;41.63;;;22.58;;
23179;SDS011;11758;45.756;11.432;2022-12-10T02:24:23;45.08;;;23.23;;
23179;SDS011;11758;45.756;11.432;2022-12-10T02:29:26;147.30;;;28.92;;
23179;SDS011;11758;45.756;11.432;2022-12-10T02:31:55;244.00;;;29.67;;
23179;SDS011;11758;45.756;11.432;2022-12-10T02:34:21;350.42;;;32.65;;
23179;SDS011;11758;45.756;11.432;2022-12-10T02:36:49;267.55;;;29.00;;
23179;SDS011;11758;45.756;11.432;2022-12-10T02:39:18;298.08;;;30.15;;
23179;SDS011;11758;45.756;11.432;2022-12-10T02:41:46;259.77;;;29.00;;
23179;SDS011;11758;45.756;11.432;2022-12-10T02:44:14;234.77;;;31.97;;
23179;SDS011;11758;45.756;11.432;2022-12-10T02:46:41;247.25;;;29.40;;
23179;SDS011;11758;45.756;11.432;2022-12-10T02:49:08;296.15;;;32.17;;
23179;SDS011;11758;45.756;11.432;2022-12-10T02:51:35;357.90;;;32.55;;
23179;SDS011;11758;45.756;11.432;2022-12-10T02:54:02;279.13;;;31.58;;
23179;SDS011;11758;45.756;11.432;2022-12-10T02:59:10;222.05;;;34.85;;
23179;SDS011;11758;45.756;11.432;2022-12-10T03:01:50;340.08;;;31.48;;
23179;SDS011;11758;45.756;11.432;2022-12-10T03:06:50;295.17;;;32.40;;
23179;SDS011;11758;45.756;11.432;2022-12-10T03:09:52;302.52;;;33.58;;
23179;SDS011;11758;45.756;11.432;2022-12-10T03:12:17;233.85;;;30.25;;
23179;SDS011;11758;45.756;11.432;2022-12-10T03:14:45;311.73;;;34.50;;
23179;SDS011;11758;45.756;11.432;2022-12-10T03:17:13;301.33;;;31.30;;
23179;SDS011;11758;45.756;11.432;2022-12-10T03:19:44;282.67;;;31.55;;
23179;SDS011;11758;45.756;11.432;2022-12-10T03:22:11;280.35;;;31.55;;
23179;SDS011;11758;45.756;11.432;2022-12-10T03:24:38;277.42;;;33.05;;
23179;SDS011;11758;45.756;11.432;2022-12-10T03:27:04;245.52;;;35.53;;
23179;SDS011;11758;45.756;11.432;2022-12-10T03:29:35;272.88;;;33.05;;
23179;SDS011;11758;45.756;11.432;2022-12-10T03:32:02;414.17;;;36.88;;
23179;SDS011;11758;45.756;11.432;2022-12-10T03:34:29;240.70;;;30.52;;
23179;SDS011;11758;45.756;11.432;2022-12-10T03:36:55;232.77;;;30.73;;
23179;SDS011;11758;45.756;11.432;2022-12-10T03:39:21;169.05;;;29.75;;
23179;SDS011;11758;45.756;11.432;2022-12-10T03:41:48;150.98;;;29.92;;
23179;SDS011;11758;45.756;11.432;2022-12-10T03:44:19;179.45;;;30.60;;
23179;SDS011;11758;45.756;11.432;2022-12-10T03:46:51;221.32;;;32.42;;
23179;SDS011;11758;45.756;11.432;2022-12-10T03:49:17;90.90;;;27.92;;
23179;SDS011;11758;45.756;11.432;2022-12-10T03:51:44;95.80;;;26.65;;
23179;SDS011;11758;45.756;11.432;2022-12-10T03:54:10;70.83;;;27.20;;
23179;SDS011;11758;45.756;11.432;2022-12-10T03:56:36;83.60;;;26.40;;
23179;SDS011;11758;45.756;11.432;2022-12-10T03:59:03;78.28;;;30.08;;
23179;SDS011;11758;45.756;11.432;2022-12-10T04:01:29;72.38;;;26.60;;
23179;SDS011;11758;45.756;11.432;2022-12-10T04:03:55;59.38;;;25.17;;
23179;SDS011;11758;45.756;11.432;2022-12-10T04:06:21;46.40;;;22.52;;
23179;SDS011;11758;45.756;11.432;2022-12-10T04:08:47;46.17;;;22.42;;
23179;SDS011;11758;45.756;11.432;2022-12-10T04:11:14;41.22;;;21.67;;
23179;SDS011;11758;45.756;11.432;2022-12-10T04:13:40;37.40;;;20.40;;
23179;SDS011;11758;45.756;11.432;2022-12-10T04:16:25;34.95;;;18.88;;
23179;SDS011;11758;45.756;11.432;2022-12-10T04:18:52;32.80;;;17.95;;
23179;SDS011;11758;45.756;11.432;2022-12-10T04:21:18;23.67;;;14.30;;
23179;SDS011;11758;45.756;11.432;2022-12-10T04:24:03;15.05;;;10.18;;
23179;SDS011;11758;45.756;11.432;2022-12-10T04:26:48;14.55;;;9.45;;
23179;SDS011;11758;45.756;11.432;2022-12-10T04:29:18;12.10;;;7.53;;
23179;SDS011;11758;45.756;11.432;2022-12-10T04:31:44;12.88;;;8.73;;
23179;SDS011;11758;45.756;11.432;2022-12-10T04:34:10;30.23;;;16.88;;
23179;SDS011;11758;45.756;11.432;2022-12-10T04:36:36;42.80;;;22.77;;
23179;SDS011;11758;45.756;11.432;2022-12-10T04:39:03;46.10;;;24.25;;
23179;SDS011;11758;45.756;11.432;2022-12-10T04:41:29;51.40;;;25.55;;
23179;SDS011;11758;45.756;11.432;2022-12-10T04:43:55;45.85;;;24.40;;
23179;SDS011;11758;45.756;11.432;2022-12-10T04:46:21;46.97;;;24.08;;
23179;SDS011;11758;45.756;11.432;2022-12-10T04:48:47;47.03;;;22.75;;
23179;SDS011;11758;45.756;11.432;2022-12-10T04:51:13;46.85;;;23.95;;
23179;SDS011;11758;45.756;11.432;2022-12-10T04:53:39;41.47;;;21.65;;
23179;SDS011;11758;45.756;11.432;2022-12-10T04:56:05;40.75;;;21.55;;
23179;SDS011;11758;45.756;11.432;2022-12-10T04:58:32;41.25;;;22.30;;
23179;SDS011;11758;45.756;11.432;2022-12-10T05:01:04;42.05;;;22.33;;
23179;SDS011;11758;45.756;11.432;2022-12-10T05:03:30;38.95;;;21.92;;
23179;SDS011;11758;45.756;11.432;2022-12-10T05:06:02;42.85;;;22.70;;
23179;SDS011;11758;45.756;11.432;2022-12-10T05:08:29;37.72;;;21.17;;
23179;SDS011;11758;45.756;11.432;2022-12-10T05:10:55;38.50;;;22.25;;
23179;SDS011;11758;45.756;11.432;2022-12-10T05:13:21;33.97;;;19.05;;
23179;SDS011;11758;45.756;11.432;2022-12-10T05:15:48;24.30;;;15.67;;
23179;SDS011;11758;45.756;11.432;2022-12-10T05:18:14;14.88;;;10.32;;
23179;SDS011;11758;45.756;11.432;2022-12-10T05:20:40;15.88;;;9.82;;
23179;SDS011;11758;45.756;11.432;2022-12-10T05:23:07;23.85;;;15.07;;
23179;SDS011;11758;45.756;11.432;2022-12-10T05:25:57;17.73;;;10.02;;
23179;SDS011;11758;45.756;11.432;2022-12-10T05:28:23;15.23;;;10.00;;
23179;SDS011;11758;45.756;11.432;2022-12-10T05:30:49;11.95;;;7.60;;
23179;SDS011;11758;45.756;11.432;2022-12-10T05:33:15;19.25;;;10.98;;
23179;SDS011;11758;45.756;11.432;2022-12-10T05:35:41;22.90;;;12.68;;
23179;SDS011;11758;45.756;11.432;2022-12-10T05:38:08;21.33;;;13.10;;
23179;SDS011;11758;45.756;11.432;2022-12-10T05:40:35;21.35;;;12.75;;
23179;SDS011;11758;45.756;11.432;2022-12-10T05:43:02;25.20;;;15.00;;
23179;SDS011;11758;45.756;11.432;2022-12-10T05:45:28;20.98;;;12.88;;
23179;SDS011;11758;45.756;11.432;2022-12-10T05:47:54;21.50;;;13.80;;
23179;SDS011;11758;45.756;11.432;2022-12-10T05:50:20;24.23;;;14.40;;
23179;SDS011;11758;45.756;11.432;2022-12-10T05:52:46;22.45;;;13.88;;
23179;SDS011;11758;45.756;11.432;2022-12-10T05:55:12;18.95;;;11.20;;
23179;SDS011;11758;45.756;11.432;2022-12-10T05:57:38;51.17;;;24.75;;
23179;SDS011;11758;45.756;11.432;2022-12-10T06:00:04;21.77;;;11.95;;
23179;SDS011;11758;45.756;11.432;2022-12-10T06:02:33;22.85;;;12.07;;
23179;SDS011;11758;45.756;11.432;2022-12-10T06:05:00;15.30;;;9.30;;
23179;SDS011;11758;45.756;11.432;2022-12-10T06:07:26;13.70;;;8.95;;
23179;SDS011;11758;45.756;11.432;2022-12-10T06:09:52;11.98;;;7.70;;
23179;SDS011;11758;45.756;11.432;2022-12-10T06:12:18;6.63;;;5.28;;
23179;SDS011;11758;45.756;11.432;2022-12-10T06:14:44;10.60;;;6.90;;
23179;SDS011;11758;45.756;11.432;2022-12-10T06:17:11;19.13;;;10.45;;
23179;SDS011;11758;45.756;11.432;2022-12-10T06:19:37;22.85;;;11.50;;
23179;SDS011;11758;45.756;11.432;2022-12-10T06:22:04;28.25;;;15.23;;
23179;SDS011;11758;45.756;11.432;2022-12-10T06:24:30;20.88;;;10.52;;
23179;SDS011;11758;45.756;11.432;2022-12-10T06:26:56;14.90;;;8.10;;
23179;SDS011;11758;45.756;11.432;2022-12-10T06:29:22;22.20;;;10.70;;
23179;SDS011;11758;45.756;11.432;2022-12-10T06:31:48;34.88;;;18.90;;
23179;SDS011;11758;45.756;11.432;2022-12-10T06:34:15;30.67;;;16.80;;
23179;SDS011;11758;45.756;11.432;2022-12-10T06:36:41;26.60;;;11.43;;
23179;SDS011;11758;45.756;11.432;2022-12-10T06:39:07;11.65;;;7.15;;
23179;SDS011;11758;45.756;11.432;2022-12-10T06:41:33;9.85;;;5.97;;
23179;SDS011;11758;45.756;11.432;2022-12-10T06:43:59;5.97;;;4.38;;
23179;SDS011;11758;45.756;11.432;2022-12-10T06:46:26;6.32;;;4.32;;
23179;SDS011;11758;45.756;11.432;2022-12-10T06:48:53;6.47;;;5.32;;
23179;SDS011;11758;45.756;11.432;2022-12-10T06:51:19;8.68;;;6.32;;
23179;SDS011;11758;45.756;11.432;2022-12-10T06:53:46;11.98;;;8.27;;
23179;SDS011;11758;45.756;11.432;2022-12-10T06:56:13;15.35;;;9.80;;
23179;SDS011;11758;45.756;11.432;2022-12-10T06:58:39;12.45;;;8.57;;
23179;SDS011;11758;45.756;11.432;2022-12-10T07:01:17;8.05;;;5.45;;
23179;SDS011;11758;45.756;11.432;2022-12-10T07:03:50;9.93;;;6.90;;
23179;SDS011;11758;45.756;11.432;2022-12-10T07:06:17;7.10;;;6.30;;
23179;SDS011;11758;45.756;11.432;2022-12-10T07:08:44;7.05;;;5.82;;
23179;SDS011;11758;45.756;11.432;2022-12-10T07:11:11;9.98;;;7.53;;
23179;SDS011;11758;45.756;11.432;2022-12-10T07:13:38;164.05;;;60.78;;
23179;SDS011;11758;45.756;11.432;2022-12-10T07:16:38;24.42;;;12.05;;
23179;SDS011;11758;45.756;11.432;2022-12-10T07:18:58;17.92;;;11.43;;
23179;SDS011;11758;45.756;11.432;2022-12-10T07:23:51;18.10;;;9.65;;
23179;SDS011;11758;45.756;11.432;2022-12-10T07:26:18;19.02;;;9.45;;
23179;SDS011;11758;45.756;11.432;2022-12-10T07:28:45;15.43;;;8.35;;
23179;SDS011;11758;45.756;11.432;2022-12-10T07:31:11;14.95;;;8.68;;
23179;SDS011;11758;45.756;11.432;2022-12-10T07:33:37;15.52;;;9.52;;
23179;SDS011;11758;45.756;11.432;2022-12-10T07:36:08;11.27;;;7.00;;
23179;SDS011;11758;45.756;11.432;2022-12-10T07:38:34;10.20;;;7.95;;
23179;SDS011;11758;45.756;11.432;2022-12-10T07:41:05;18.30;;;9.80;;
23179;SDS011;11758;45.756;11.432;2022-12-10T07:43:34;24.88;;;12.55;;
23179;SDS011;11758;45.756;11.432;2022-12-10T07:48:30;37.42;;;14.80;;
23179;SDS011;11758;45.756;11.432;2022-12-10T07:50:57;30.42;;;13.27;;
23179;SDS011;11758;45.756;11.432;2022-12-10T07:53:23;79.13;;;33.65;;
23179;SDS011;11758;45.756;11.432;2022-12-10T07:55:49;21.30;;;12.15;;
23179;SDS011;11758;45.756;11.432;2022-12-10T07:58:16;19.08;;;10.45;;
23179;SDS011;11758;45.756;11.432;2022-12-10T08:00:42;24.13;;;12.07;;
23179;SDS011;11758;45.756;11.432;2022-12-10T08:03:08;20.40;;;10.73;;
23179;SDS011;11758;45.756;11.432;2022-12-10T08:05:34;22.35;;;10.75;;
23179;SDS011;11758;45.756;11.432;2022-12-10T08:08:00;15.70;;;7.20;;
23179;SDS011;11758;45.756;11.432;2022-12-10T08:10:26;11.30;;;6.70;;
23179;SDS011;11758;45.756;11.432;2022-12-10T08:12:52;6.20;;;5.60;;
23179;SDS011;11758;45.756;11.432;2022-12-10T08:15:18;3.00;;;2.80;;
23179;SDS011;11758;45.756;11.432;2022-12-10T08:17:45;4.68;;;3.95;;
23179;SDS011;11758;45.756;11.432;2022-12-10T08:20:11;5.70;;;4.95;;
23179;SDS011;11758;45.756;11.432;2022-12-10T08:22:38;8.55;;;6.03;;
23179;SDS011;11758;45.756;11.432;2022-12-10T08:25:04;15.32;;;9.63;;
23179;SDS011;11758;45.756;11.432;2022-12-10T08:27:30;21.55;;;13.43;;
23179;SDS011;11758;45.756;11.432;2022-12-10T08:29:57;26.38;;;15.73;;
23179;SDS011;11758;45.756;11.432;2022-12-10T08:32:23;25.95;;;15.65;;
23179;SDS011;11758;45.756;11.432;2022-12-10T08:34:49;27.08;;;15.90;;
23179;SDS011;11758;45.756;11.432;2022-12-10T08:37:15;27.90;;;17.65;;
23179;SDS011;11758;45.756;11.432;2022-12-10T08:39:43;39.35;;;18.70;;
23179;SDS011;11758;45.756;11.432;2022-12-10T08:42:09;35.40;;;22.13;;
23179;SDS011;11758;45.756;11.432;2022-12-10T08:44:36;38.25;;;23.63;;
23179;SDS011;11758;45.756;11.432;2022-12-10T08:47:02;44.28;;;24.35;;
23179;SDS011;11758;45.756;11.432;2022-12-10T08:49:30;44.72;;;27.23;;
23179;SDS011;11758;45.756;11.432;2022-12-10T08:51:56;55.83;;;31.75;;
23179;SDS011;11758;45.756;11.432;2022-12-10T08:54:23;41.40;;;24.83;;
23179;SDS011;11758;45.756;11.432;2022-12-10T08:56:50;44.10;;;25.20;;
23179;SDS011;11758;45.756;11.432;2022-12-10T08:59:21;40.05;;;23.88;;
23179;SDS011;11758;45.756;11.432;2022-12-10T09:01:50;35.88;;;21.15;;
23179;SDS011;11758;45.756;11.432;2022-12-10T09:04:18;37.85;;;22.17;;
23179;SDS011;11758;45.756;11.432;2022-12-10T09:06:48;30.67;;;19.25;;
23179;SDS011;11758;45.756;11.432;2022-12-10T09:09:16;49.50;;;27.52;;
23179;SDS011;11758;45.756;11.432;2022-12-10T09:11:43;55.85;;;29.40;;
23179;SDS011;11758;45.756;11.432;2022-12-10T09:14:11;58.17;;;30.45;;
23179;SDS011;11758;45.756;11.432;2022-12-10T09:16:42;52.08;;;29.45;;
23179;SDS011;11758;45.756;11.432;2022-12-10T09:19:11;70.10;;;32.83;;
23179;SDS011;11758;45.756;11.432;2022-12-10T09:21:37;65.93;;;30.83;;
23179;SDS011;11758;45.756;11.432;2022-12-10T09:24:04;61.17;;;31.30;;
23179;SDS011;11758;45.756;11.432;2022-12-10T09:26:32;50.10;;;27.30;;
23179;SDS011;11758;45.756;11.432;2022-12-10T09:28:59;43.75;;;23.17;;
23179;SDS011;11758;45.756;11.432;2022-12-10T09:31:26;52.22;;;28.58;;
23179;SDS011;11758;45.756;11.432;2022-12-10T09:33:54;48.00;;;27.38;;
23179;SDS011;11758;45.756;11.432;2022-12-10T09:36:21;55.90;;;28.27;;
23179;SDS011;11758;45.756;11.432;2022-12-10T09:38:47;42.28;;;25.33;;
23179;SDS011;11758;45.756;11.432;2022-12-10T09:51:21;24.92;;;16.45;;
23179;SDS011;11758;45.756;11.432;2022-12-10T09:53:49;21.27;;;13.52;;
23179;SDS011;11758;45.756;11.432;2022-12-10T09:56:25;22.27;;;14.73;;
23179;SDS011;11758;45.756;11.432;2022-12-10T09:58:52;29.83;;;15.63;;
23179;SDS011;11758;45.756;11.432;2022-12-10T10:01:20;29.35;;;16.92;;
23179;SDS011;11758;45.756;11.432;2022-12-10T10:03:50;29.08;;;16.90;;
23179;SDS011;11758;45.756;11.432;2022-12-10T10:06:17;30.90;;;19.20;;
23179;SDS011;11758;45.756;11.432;2022-12-10T10:08:47;32.60;;;17.52;;
23179;SDS011;11758;45.756;11.432;2022-12-10T10:11:17;25.00;;;16.08;;
23179;SDS011;11758;45.756;11.432;2022-12-10T10:13:49;20.85;;;13.68;;
23179;SDS011;11758;45.756;11.432;2022-12-10T10:21:26;22.38;;;15.13;;
23179;SDS011;11758;45.756;11.432;2022-12-10T10:23:54;22.38;;;15.50;;
23179;SDS011;11758;45.756;11.432;2022-12-10T10:26:20;19.85;;;13.38;;
23179;SDS011;11758;45.756;11.432;2022-12-10T10:28:46;20.88;;;13.77;;
23179;SDS011;11758;45.756;11.432;2022-12-10T10:31:19;22.70;;;13.73;;
23179;SDS011;11758;45.756;11.432;2022-12-10T10:33:50;23.05;;;14.20;;
23179;SDS011;11758;45.756;11.432;2022-12-10T10:36:22;20.13;;;13.85;;
23179;SDS011;11758;45.756;11.432;2022-12-10T10:38:49;32.17;;;18.13;;
23179;SDS011;11758;45.756;11.432;2022-12-10T10:41:15;29.30;;;16.80;;
23179;SDS011;11758;45.756;11.432;2022-12-10T10:43:42;26.25;;;17.02;;
23179;SDS011;11758;45.756;11.432;2022-12-10T10:48:38;26.75;;;16.02;;
23179;SDS011;11758;45.756;11.432;2022-12-10T10:55:58;19.02;;;12.43;;
23179;SDS011;11758;45.756;11.432;2022-12-10T10:58:25;18.00;;;12.27;;
23179;SDS011;11758;45.756;11.432;2022-12-10T11:01:00;78.47;;;39.72;;
23179;SDS011;11758;45.756;11.432;2022-12-10T11:03:28;62.38;;;32.05;;
23179;SDS011;11758;45.756;11.432;2022-12-10T11:05:56;40.88;;;23.52;;
23179;SDS011;11758;45.756;11.432;2022-12-10T11:08:23;20.08;;;12.15;;
23179;SDS011;11758;45.756;11.432;2022-12-10T11:10:51;20.35;;;14.23;;
23179;SDS011;11758;45.756;11.432;2022-12-10T11:13:19;22.83;;;14.48;;
23179;SDS011;11758;45.756;11.432;2022-12-10T11:15:53;23.65;;;14.48;;
23179;SDS011;11758;45.756;11.432;2022-12-10T11:18:29;22.35;;;13.35;;
23179;SDS011;11758;45.756;11.432;2022-12-10T11:23:36;19.63;;;13.20;;
23179;SDS011;11758;45.756;11.432;2022-12-10T11:26:51;26.30;;;15.82;;
23179;SDS011;11758;45.756;11.432;2022-12-10T11:31:53;16.50;;;10.80;;
23179;SDS011;11758;45.756;11.432;2022-12-10T11:34:38;11.93;;;9.43;;
23179;SDS011;11758;45.756;11.432;2022-12-10T11:37:14;12.77;;;9.05;;
23179;SDS011;11758;45.756;11.432;2022-12-10T11:58:12;13.00;;;9.80;;
23179;SDS011;11758;45.756;11.432;2022-12-10T12:00:42;12.65;;;10.20;;
23179;SDS011;11758;45.756;11.432;2022-12-10T12:09:02;12.70;;;10.13;;
23179;SDS011;11758;45.756;11.432;2022-12-10T12:19:26;8.68;;;7.78;;
23179;SDS011;11758;45.756;11.432;2022-12-10T12:21:54;10.68;;;8.35;;
23179;SDS011;11758;45.756;11.432;2022-12-10T12:24:22;9.77;;;8.77;;
23179;SDS011;11758;45.756;11.432;2022-12-10T12:26:52;9.25;;;8.20;;
23179;SDS011;11758;45.756;11.432;2022-12-10T12:29:21;13.10;;;9.25;;
23179;SDS011;11758;45.756;11.432;2022-12-10T12:31:54;11.88;;;8.82;;
23179;SDS011;11758;45.756;11.432;2022-12-10T12:34:24;11.85;;;9.73;;
23179;SDS011;11758;45.756;11.432;2022-12-10T12:36:52;13.52;;;10.30;;
23179;SDS011;11758;45.756;11.432;2022-12-10T12:44:59;18.60;;;12.88;;
23179;SDS011;11758;45.756;11.432;2022-12-10T12:50:11;11.25;;;9.25;;
23179;SDS011;11758;45.756;11.432;2022-12-10T12:52:46;13.75;;;9.57;;
23179;SDS011;11758;45.756;11.432;2022-12-10T12:55:17;16.58;;;11.68;;
23179;SDS011;11758;45.756;11.432;2022-12-10T12:57:45;22.92;;;13.93;;
23179;SDS011;11758;45.756;11.432;2022-12-10T13:00:14;15.73;;;11.40;;
23179;SDS011;11758;45.756;11.432;2022-12-10T13:05:30;15.60;;;11.88;;
23179;SDS011;11758;45.756;11.432;2022-12-10T13:11:27;20.00;;;15.38;;
23179;SDS011;11758;45.756;11.432;2022-12-10T13:13:34;22.30;;;15.75;;
23179;SDS011;11758;45.756;11.432;2022-12-10T13:24:21;22.95;;;16.20;;
23179;SDS011;11758;45.756;11.432;2022-12-10T13:27:05;21.20;;;15.43;;
23179;SDS011;11758;45.756;11.432;2022-12-10T13:32:41;29.42;;;18.25;;
23179;SDS011;11758;45.756;11.432;2022-12-10T13:37:54;33.22;;;18.98;;
23179;SDS011;11758;45.756;11.432;2022-12-10T13:40:24;31.33;;;23.25;;
23179;SDS011;11758;45.756;11.432;2022-12-10T13:46:19;23.23;;;18.80;;
23179;SDS011;11758;45.756;11.432;2022-12-10T13:48:40;24.17;;;18.10;;
23179;SDS011;11758;45.756;11.432;2022-12-10T13:53:47;35.30;;;25.10;;
23179;SDS011;11758;45.756;11.432;2022-12-10T13:56:20;40.42;;;26.02;;
23179;SDS011;11758;45.756;11.432;2022-12-10T13:58:58;25.92;;;19.30;;
23179;SDS011;11758;45.756;11.432;2022-12-10T14:06:45;31.75;;;22.73;;
23179;SDS011;11758;45.756;11.432;2022-12-10T14:09:28;33.72;;;24.85;;
23179;SDS011;11758;45.756;11.432;2022-12-10T14:12:06;28.13;;;21.92;;
23179;SDS011;11758;45.756;11.432;2022-12-10T14:14:34;26.05;;;20.75;;
23179;SDS011;11758;45.756;11.432;2022-12-10T14:17:02;26.90;;;21.17;;
23179;SDS011;11758;45.756;11.432;2022-12-10T14:19:29;35.58;;;27.67;;
23179;SDS011;11758;45.756;11.432;2022-12-10T14:21:56;32.38;;;25.88;;
23179;SDS011;11758;45.756;11.432;2022-12-10T14:24:26;31.30;;;23.33;;
23179;SDS011;11758;45.756;11.432;2022-12-10T14:27:00;36.63;;;24.77;;
23179;SDS011;11758;45.756;11.432;2022-12-10T14:32:10;31.75;;;22.90;;
23179;SDS011;11758;45.756;11.432;2022-12-10T14:34:39;32.53;;;23.30;;
23179;SDS011;11758;45.756;11.432;2022-12-10T14:37:05;39.05;;;24.92;;
23179;SDS011;11758;45.756;11.432;2022-12-10T14:39:35;34.60;;;26.42;;
23179;SDS011;11758;45.756;11.432;2022-12-10T14:44:56;39.20;;;28.40;;
23179;SDS011;11758;45.756;11.432;2022-12-10T14:47:44;35.33;;;25.33;;
23179;SDS011;11758;45.756;11.432;2022-12-10T14:50:10;38.35;;;25.50;;
23179;SDS011;11758;45.756;11.432;2022-12-10T14:52:42;37.22;;;26.67;;
23179;SDS011;11758;45.756;11.432;2022-12-10T14:55:14;44.30;;;28.15;;
23179;SDS011;11758;45.756;11.432;2022-12-10T14:57:59;38.38;;;26.30;;
23179;SDS011;11758;45.756;11.432;2022-12-10T15:00:27;39.30;;;30.00;;
23179;SDS011;11758;45.756;11.432;2022-12-10T15:02:54;41.95;;;31.02;;
23179;SDS011;11758;45.756;11.432;2022-12-10T15:05:23;37.63;;;28.90;;
23179;SDS011;11758;45.756;11.432;2022-12-10T15:07:53;37.60;;;29.55;;
23179;SDS011;11758;45.756;11.432;2022-12-10T15:10:21;43.38;;;32.28;;
23179;SDS011;11758;45.756;11.432;2022-12-10T15:12:49;42.90;;;31.75;;
23179;SDS011;11758;45.756;11.432;2022-12-10T15:15:21;44.45;;;34.30;;
23179;SDS011;11758;45.756;11.432;2022-12-10T15:18:33;44.08;;;34.03;;
23179;SDS011;11758;45.756;11.432;2022-12-10T15:20:46;58.17;;;38.97;;
23179;SDS011;11758;45.756;11.432;2022-12-10T15:25:59;52.05;;;36.85;;
23179;SDS011;11758;45.756;11.432;2022-12-10T15:28:27;43.75;;;26.05;;
23179;SDS011;11758;45.756;11.432;2022-12-10T15:34:10;40.50;;;27.92;;
23179;SDS011;11758;45.756;11.432;2022-12-10T15:36:53;32.83;;;21.00;;
23179;SDS011;11758;45.756;11.432;2022-12-10T15:39:21;38.78;;;24.70;;
23179;SDS011;11758;45.756;11.432;2022-12-10T15:41:49;37.35;;;24.40;;
23179;SDS011;11758;45.756;11.432;2022-12-10T15:47:08;40.13;;;25.90;;
23179;SDS011;11758;45.756;11.432;2022-12-10T15:49:35;40.70;;;27.30;;
23179;SDS011;11758;45.756;11.432;2022-12-10T15:52:01;40.17;;;25.33;;
23179;SDS011;11758;45.756;11.432;2022-12-10T15:54:32;40.47;;;24.77;;
23179;SDS011;11758;45.756;11.432;2022-12-10T15:57:41;40.90;;;25.40;;
23179;SDS011;11758;45.756;11.432;2022-12-10T15:59:49;42.97;;;25.70;;
23179;SDS011;11758;45.756;11.432;2022-12-10T16:04:42;41.97;;;25.95;;
23179;SDS011;11758;45.756;11.432;2022-12-10T16:07:08;45.95;;;28.55;;
23179;SDS011;11758;45.756;11.432;2022-12-10T16:09:34;51.83;;;27.25;;
23179;SDS011;11758;45.756;11.432;2022-12-10T16:12:00;53.17;;;29.63;;
23179;SDS011;11758;45.756;11.432;2022-12-10T16:14:27;45.95;;;27.85;;
23179;SDS011;11758;45.756;11.432;2022-12-10T16:16:53;42.45;;;27.30;;
23179;SDS011;11758;45.756;11.432;2022-12-10T16:19:19;48.65;;;28.40;;
23179;SDS011;11758;45.756;11.432;2022-12-10T16:21:45;47.13;;;30.05;;
23179;SDS011;11758;45.756;11.432;2022-12-10T16:24:13;57.45;;;32.72;;
23179;SDS011;11758;45.756;11.432;2022-12-10T16:26:39;61.10;;;34.38;;
23179;SDS011;11758;45.756;11.432;2022-12-10T16:29:07;50.83;;;32.05;;
23179;SDS011;11758;45.756;11.432;2022-12-10T16:31:33;53.95;;;31.48;;
23179;SDS011;11758;45.756;11.432;2022-12-10T16:33:59;64.78;;;36.85;;
23179;SDS011;11758;45.756;11.432;2022-12-10T16:36:25;84.88;;;39.45;;
23179;SDS011;11758;45.756;11.432;2022-12-10T16:38:52;69.85;;;34.88;;